createdAt,value
2022-12-01T00:01:37.062Z,13.73
2022-12-01T00:04:03.395Z,14.52
2022-12-01T00:06:29.615Z,14.35
2022-12-01T00:09:19.555Z,14.63
2022-12-01T00:11:46.253Z,13.45
2022-12-01T00:14:12.498Z,14.23
2022-12-01T00:16:40.397Z,13.23
2022-12-01T00:19:06.755Z,14.18
2022-12-01T00:21:32.960Z,14.52
2022-12-01T00:23:59.170Z,12.73
2022-12-01T00:26:26.208Z,13.07
2022-12-01T00:28:53.573Z,12.95
2022-12-01T00:31:20.038Z,12.32
2022-12-01T00:33:46.374Z,12.05
2022-12-01T00:36:12.632Z,13.55
2022-12-01T00:38:39.037Z,12.75
2022-12-01T00:41:05.409Z,12.52
2022-12-01T00:43:31.818Z,12.57
2022-12-01T00:45:58.201Z,13.13
2022-12-01T00:48:24.659Z,11.93
2022-12-01T00:50:51.860Z,12.73
2022-12-01T00:53:18.065Z,13.40
2022-12-01T00:55:44.268Z,12.88
2022-12-01T00:58:10.461Z,13.85
2022-12-01T01:00:38.620Z,13.25
2022-12-01T01:03:06.066Z,13.02
2022-12-01T01:05:35.280Z,13.35
2022-12-01T01:08:01.535Z,13.95
2022-12-01T01:10:27.806Z,13.75
2022-12-01T01:12:54.018Z,13.88
2022-12-01T01:15:20.281Z,13.88
2022-12-01T01:17:46.481Z,13.15
2022-12-01T01:20:12.898Z,14.38
2022-12-01T01:22:39.118Z,15.50
2022-12-01T01:25:05.548Z,15.35
2022-12-01T01:27:31.782Z,15.00
2022-12-01T01:29:57.977Z,14.77
2022-12-01T01:32:24.349Z,15.38
2022-12-01T01:34:50.581Z,15.93
2022-12-01T01:37:16.839Z,15.00
2022-12-01T01:39:43.021Z,16.48
2022-12-01T01:42:12.648Z,16.80
2022-12-01T01:44:48.521Z,16.67
2022-12-01T01:47:15.306Z,15.57
2022-12-01T01:49:42.283Z,17.17
2022-12-01T01:52:09.014Z,15.63
2022-12-01T01:54:37.344Z,15.82
2022-12-01T01:57:04.753Z,16.58
2022-12-01T01:59:33.401Z,18.42
2022-12-01T02:02:05.983Z,17.95
2022-12-01T02:04:37.053Z,17.02
2022-12-01T02:07:03.437Z,18.95
2022-12-01T02:09:29.678Z,17.02
2022-12-01T02:11:55.878Z,18.58
2022-12-01T02:14:30.555Z,18.73
2022-12-01T02:16:56.798Z,19.88
2022-12-01T02:19:35.137Z,19.40
2022-12-01T02:22:01.374Z,19.38
2022-12-01T02:24:46.174Z,19.42
2022-12-01T02:27:19.528Z,19.52
2022-12-01T02:30:00.827Z,20.65
2022-12-01T02:32:27.043Z,20.90
2022-12-01T02:35:03.719Z,20.65
2022-12-01T02:37:35.764Z,21.33
2022-12-01T02:40:06.235Z,21.00
2022-12-01T02:42:49.654Z,22.58
2022-12-01T02:45:21.986Z,22.85
2022-12-01T02:47:49.063Z,21.50
2022-12-01T02:50:15.441Z,20.60
2022-12-01T02:52:42.501Z,21.88
2022-12-01T02:55:08.851Z,22.33
2022-12-01T02:57:35.067Z,20.75
2022-12-01T03:00:01.871Z,21.67
2022-12-01T03:02:31.341Z,21.27
2022-12-01T03:05:09.853Z,21.88
2022-12-01T03:07:45.741Z,21.17
2022-12-01T03:10:16.975Z,21.10
2022-12-01T03:12:49.420Z,21.27
2022-12-01T03:15:23.004Z,21.08
2022-12-01T03:18:01.245Z,20.88
2022-12-01T03:20:47.153Z,21.25
2022-12-01T03:23:16.460Z,21.67
2022-12-01T03:25:44.767Z,21.58
2022-12-01T03:28:21.260Z,21.55
2022-12-01T03:30:50.644Z,22.52
2022-12-01T03:33:21.220Z,22.73
2022-12-01T03:35:55.862Z,23.00
2022-12-01T03:38:24.507Z,22.77
2022-12-01T03:40:52.857Z,23.08
2022-12-01T03:43:20.930Z,22.75
2022-12-01T03:45:53.974Z,23.90
2022-12-01T03:48:21.356Z,24.58
2022-12-01T03:51:03.834Z,23.88
2022-12-01T03:53:34.330Z,24.20
2022-12-01T03:56:05.984Z,24.77
2022-12-01T03:58:34.308Z,24.70
2022-12-01T04:01:04.385Z,25.85
2022-12-01T04:03:30.804Z,25.80
2022-12-01T04:05:57.895Z,26.60
2022-12-01T04:08:24.318Z,26.00
2022-12-01T04:10:50.715Z,25.10
2022-12-01T04:13:23.194Z,26.52
2022-12-01T04:15:52.891Z,26.77
2022-12-01T04:18:19.620Z,27.55
2022-12-01T04:20:46.194Z,26.27
2022-12-01T04:23:32.716Z,26.05
2022-12-01T04:26:00.110Z,28.52
2022-12-01T04:28:26.584Z,28.42
2022-12-01T04:30:52.846Z,27.48
2022-12-01T04:33:19.075Z,27.40
2022-12-01T04:35:45.302Z,28.13
2022-12-01T04:38:11.720Z,27.90
2022-12-01T04:40:38.480Z,27.38
2022-12-01T04:43:04.697Z,29.02
2022-12-01T04:45:30.903Z,29.02
2022-12-01T04:47:57.107Z,28.17
2022-12-01T04:50:23.470Z,28.27
2022-12-01T04:52:49.668Z,27.30
2022-12-01T04:55:15.889Z,26.83
2022-12-01T04:57:42.116Z,27.50
2022-12-01T05:00:12.996Z,28.60
2022-12-01T05:02:43.505Z,28.38
2022-12-01T05:05:10.187Z,27.58
2022-12-01T05:07:36.361Z,28.33
2022-12-01T05:10:03.385Z,28.13
2022-12-01T05:12:29.654Z,29.58
2022-12-01T05:14:55.868Z,28.75
2022-12-01T05:17:22.080Z,28.02
2022-12-01T05:20:06.839Z,26.77
2022-12-01T05:23:03.859Z,28.25
2022-12-01T05:25:19.480Z,28.15
2022-12-01T05:27:45.679Z,28.77
2022-12-01T05:30:12.097Z,30.15
2022-12-01T05:32:38.302Z,28.27
2022-12-01T05:35:05.250Z,29.73
2022-12-01T05:37:34.462Z,29.83
2022-12-01T05:40:01.086Z,29.60
2022-12-01T05:42:27.565Z,26.13
2022-12-01T05:44:53.788Z,27.90
2022-12-01T05:47:19.989Z,26.55
2022-12-01T05:49:46.305Z,28.17
2022-12-01T05:52:12.639Z,28.10
2022-12-01T05:54:38.864Z,28.27
2022-12-01T05:57:05.061Z,28.25
2022-12-01T05:59:31.284Z,28.65
2022-12-01T06:01:57.562Z,26.45
2022-12-01T06:04:24.354Z,28.50
2022-12-01T06:06:50.830Z,29.15
2022-12-01T06:09:17.122Z,27.90
2022-12-01T06:11:43.423Z,27.88
2022-12-01T06:14:09.610Z,28.90
2022-12-01T06:16:35.888Z,29.15
2022-12-01T06:19:02.369Z,28.50
2022-12-01T06:21:28.578Z,28.17
2022-12-01T06:23:54.790Z,28.25
2022-12-01T06:26:21.015Z,27.85
2022-12-01T06:28:47.200Z,26.70
2022-12-01T06:31:13.593Z,28.80
2022-12-01T06:33:39.797Z,27.33
2022-12-01T06:36:06.739Z,28.15
2022-12-01T06:38:34.027Z,27.60
2022-12-01T06:41:00.542Z,27.48
2022-12-01T06:43:27.020Z,26.50
2022-12-01T06:45:57.817Z,26.25
2022-12-01T06:48:27.343Z,26.60
2022-12-01T06:50:56.421Z,26.40
2022-12-01T06:53:22.639Z,24.55
2022-12-01T06:55:49.095Z,32.10
2022-12-01T06:58:16.345Z,26.25
2022-12-01T07:00:46.382Z,25.33
2022-12-01T07:03:15.285Z,25.42
2022-12-01T07:05:41.480Z,25.58
2022-12-01T07:08:07.774Z,24.67
2022-12-01T07:10:33.997Z,24.02
2022-12-01T07:13:00.221Z,24.83
2022-12-01T07:15:28.600Z,24.58
2022-12-01T07:17:54.823Z,25.60
2022-12-01T07:20:21.027Z,23.48
2022-12-01T07:22:47.250Z,23.77
2022-12-01T07:25:13.719Z,22.30
2022-12-01T07:27:39.981Z,23.92
2022-12-01T07:30:06.508Z,22.55
2022-12-01T07:32:32.748Z,23.33
2022-12-01T07:34:58.947Z,22.63
2022-12-01T07:37:25.138Z,23.70
2022-12-01T07:39:51.515Z,22.60
2022-12-01T07:42:17.806Z,22.40
2022-12-01T07:44:44.021Z,23.23
2022-12-01T07:47:10.231Z,21.70
2022-12-01T07:49:36.413Z,22.95
2022-12-01T07:52:02.626Z,21.20
2022-12-01T07:54:28.985Z,21.63
2022-12-01T07:56:55.199Z,28.75
2022-12-01T07:59:21.465Z,25.65
2022-12-01T08:01:47.795Z,22.98
2022-12-01T08:04:14.107Z,21.33
2022-12-01T08:06:40.347Z,20.90
2022-12-01T08:09:06.546Z,23.10
2022-12-01T08:11:32.796Z,25.17
2022-12-01T08:13:59.015Z,25.23
2022-12-01T08:16:25.486Z,23.50
2022-12-01T08:18:51.995Z,23.83
2022-12-01T08:21:19.629Z,23.10
2022-12-01T08:23:46.242Z,23.17
2022-12-01T08:26:14.115Z,23.63
2022-12-01T08:28:40.531Z,24.45
2022-12-01T08:31:10.917Z,22.52
2022-12-01T08:33:37.235Z,22.25
2022-12-01T08:36:04.191Z,22.20
2022-12-01T08:38:30.465Z,23.48
2022-12-01T08:41:03.922Z,23.23
2022-12-01T08:43:56.098Z,22.85
2022-12-01T08:46:16.673Z,22.42
2022-12-01T08:48:42.901Z,23.08
2022-12-01T08:51:13.877Z,21.98
2022-12-01T08:53:45.279Z,22.65
2022-12-01T08:56:14.427Z,22.02
2022-12-01T08:58:40.648Z,22.70
2022-12-01T09:01:08.284Z,22.30
2022-12-01T09:03:35.187Z,22.33
2022-12-01T09:06:02.708Z,20.83
2022-12-01T09:08:31.754Z,20.50
2022-12-01T09:10:58.851Z,22.45
2022-12-01T09:13:25.324Z,21.35
2022-12-01T09:15:55.582Z,20.42
2022-12-01T09:18:21.889Z,20.58
2022-12-01T09:20:48.110Z,25.23
2022-12-01T09:23:14.278Z,21.23
2022-12-01T09:25:40.462Z,21.63
2022-12-01T09:28:06.680Z,21.33
2022-12-01T09:30:34.225Z,20.85
2022-12-01T09:33:00.870Z,19.85
2022-12-01T09:35:27.393Z,19.00
2022-12-01T09:37:53.586Z,20.63
2022-12-01T09:40:19.778Z,21.52
2022-12-01T09:42:47.233Z,19.88
2022-12-01T09:45:27.830Z,21.08
2022-12-01T09:47:55.407Z,19.80
2022-12-01T09:50:25.174Z,19.42
2022-12-01T09:52:53.621Z,19.33
2022-12-01T09:55:21.403Z,19.88
2022-12-01T09:57:48.531Z,19.85
2022-12-01T10:00:19.282Z,19.17
2022-12-01T10:02:54.781Z,19.92
2022-12-01T10:05:22.305Z,19.58
2022-12-01T10:07:53.898Z,18.55
2022-12-01T10:10:28.193Z,18.65
2022-12-01T10:12:54.392Z,17.80
2022-12-01T10:15:39.135Z,18.98
2022-12-01T10:18:24.479Z,18.85
2022-12-01T10:20:55.942Z,17.38
2022-12-01T10:25:55.462Z,16.85
2022-12-01T10:28:34.438Z,18.17
2022-12-01T10:31:08.031Z,18.52
2022-12-01T10:33:39.994Z,17.63
2022-12-01T10:36:06.992Z,16.52
2022-12-01T10:38:34.960Z,16.88
2022-12-01T10:41:02.099Z,16.08
2022-12-01T10:43:34.060Z,17.58
2022-12-01T10:46:01.388Z,17.58
2022-12-01T10:48:27.669Z,17.40
2022-12-01T10:50:54.713Z,17.98
2022-12-01T10:53:23.912Z,17.45
2022-12-01T10:55:51.505Z,17.33
2022-12-01T10:58:19.305Z,17.33
2022-12-01T11:01:01.905Z,17.40
2022-12-01T11:03:31.120Z,18.05
2022-12-01T11:05:59.477Z,18.13
2022-12-01T11:08:31.678Z,18.30
2022-12-01T11:10:58.184Z,16.98
2022-12-01T11:13:28.443Z,17.92
2022-12-01T11:15:57.226Z,16.52
2022-12-01T11:18:28.311Z,17.38
2022-12-01T11:21:25.267Z,17.48
2022-12-01T11:23:53.410Z,18.27
2022-12-01T11:26:30.130Z,17.65
2022-12-01T11:29:07.593Z,17.35
2022-12-01T11:31:41.230Z,18.50
2022-12-01T11:34:16.076Z,17.88
2022-12-01T11:36:47.023Z,16.38
2022-12-01T11:39:28.682Z,17.83
2022-12-01T11:41:55.897Z,15.70
2022-12-01T11:44:43.522Z,16.13
2022-12-01T11:47:23.064Z,16.35
2022-12-01T11:49:57.481Z,15.52
2022-12-01T11:52:27.206Z,14.77
2022-12-01T11:54:57.790Z,14.77
2022-12-01T11:57:39.473Z,16.00
2022-12-01T12:02:31.854Z,16.30
2022-12-01T12:05:07.176Z,15.95
2022-12-01T12:07:48.189Z,15.93
2022-12-01T12:10:14.397Z,15.88
2022-12-01T12:12:40.766Z,17.30
2022-12-01T12:15:09.967Z,19.02
2022-12-01T12:17:39.227Z,20.58
2022-12-01T12:20:17.583Z,19.65
2022-12-01T12:22:44.014Z,18.85
2022-12-01T12:25:19.372Z,19.67
2022-12-01T12:27:58.136Z,19.92
2022-12-01T12:30:29.485Z,24.85
2022-12-01T12:32:58.872Z,21.50
2022-12-01T12:35:37.757Z,20.77
2022-12-01T12:38:03.940Z,21.05
2022-12-01T12:40:47.276Z,23.90
2022-12-01T12:43:19.777Z,22.17
2022-12-01T12:45:54.351Z,22.60
2022-12-01T12:49:03.507Z,21.45
2022-12-01T12:51:33.794Z,22.92
2022-12-01T12:54:08.146Z,22.02
2022-12-01T12:56:35.297Z,23.33
2022-12-01T12:59:07.022Z,23.40
2022-12-01T13:01:42.170Z,22.55
2022-12-01T13:04:32.054Z,22.95
2022-12-01T13:07:07.990Z,22.90
2022-12-01T13:09:48.590Z,24.48
2022-12-01T13:12:24.691Z,22.90
2022-12-01T13:15:01.030Z,23.60
2022-12-01T13:17:36.852Z,24.40
2022-12-01T13:20:03.823Z,25.25
2022-12-01T13:22:31.937Z,23.33
2022-12-01T13:24:58.312Z,25.05
2022-12-01T13:27:26.380Z,23.02
2022-12-01T13:29:53.618Z,23.20
2022-12-01T13:32:26.362Z,25.13
2022-12-01T13:34:52.766Z,23.10
2022-12-01T13:37:26.335Z,23.85
2022-12-01T13:39:54.314Z,23.50
2022-12-01T13:42:27.365Z,21.80
2022-12-01T13:44:55.199Z,23.27
2022-12-01T13:47:32.269Z,23.13
2022-12-01T13:50:18.542Z,22.75
2022-12-01T13:52:50.599Z,24.23
2022-12-01T13:55:16.815Z,23.83
2022-12-01T13:57:44.415Z,23.40
2022-12-01T14:00:23.649Z,21.83
2022-12-01T14:03:08.638Z,23.83
2022-12-01T14:05:46.937Z,21.73
2022-12-01T14:08:21.247Z,22.70
2022-12-01T14:11:03.965Z,22.08
2022-12-01T14:13:31.048Z,23.13
2022-12-01T14:16:01.687Z,23.45
2022-12-01T14:18:49.034Z,24.40
2022-12-01T14:21:15.351Z,23.23
2022-12-01T14:23:59.267Z,24.00
2022-12-01T14:26:28.355Z,23.77
2022-12-01T14:29:00.710Z,24.98
2022-12-01T14:31:32.997Z,24.33
2022-12-01T14:34:02.966Z,26.05
2022-12-01T14:36:40.414Z,24.83
2022-12-01T14:39:12.374Z,26.63
2022-12-01T14:41:42.182Z,26.08
2022-12-01T14:44:27.237Z,25.17
2022-12-01T14:46:56.301Z,25.90
2022-12-01T14:49:27.842Z,26.10
2022-12-01T14:54:23.798Z,27.13
2022-12-01T14:56:52.430Z,26.05
2022-12-01T14:59:21.846Z,26.92
2022-12-01T15:01:50.078Z,26.50
2022-12-01T15:04:16.848Z,27.80
2022-12-01T15:06:43.456Z,25.70
2022-12-01T15:09:33.419Z,27.42
2022-12-01T15:12:02.358Z,26.33
2022-12-01T15:14:30.118Z,27.08
2022-12-01T15:16:56.463Z,25.55
2022-12-01T15:19:32.810Z,27.70
2022-12-01T15:21:59.792Z,25.92
2022-12-01T15:24:27.148Z,26.48
2022-12-01T15:27:00.520Z,24.85
2022-12-01T15:29:31.343Z,24.33
2022-12-01T15:31:57.632Z,26.48
2022-12-01T15:34:30.396Z,25.98
2022-12-01T15:36:57.154Z,25.95
2022-12-01T15:39:28.658Z,26.50
2022-12-01T15:44:29.731Z,24.42
2022-12-01T15:46:56.303Z,22.73
2022-12-01T15:49:32.145Z,26.50
2022-12-01T15:52:09.206Z,27.27
2022-12-01T15:54:36.075Z,25.15
2022-12-01T15:57:03.385Z,24.70
2022-12-01T15:59:39.870Z,25.08
2022-12-01T16:02:07.342Z,23.90
2022-12-01T16:04:35.333Z,24.48
2022-12-01T16:07:06.784Z,27.38
2022-12-01T16:12:03.533Z,27.02
2022-12-01T16:14:31.560Z,17.67
2022-12-01T16:16:59.465Z,25.15
2022-12-01T16:19:33.078Z,25.25
2022-12-01T16:21:59.365Z,26.30
2022-12-01T16:24:25.778Z,25.38
2022-12-01T16:26:54.231Z,24.10
2022-12-01T16:29:21.550Z,25.42
2022-12-01T16:32:12.702Z,26.00
2022-12-01T16:34:46.043Z,26.10
2022-12-01T16:37:13.206Z,26.63
2022-12-01T16:39:39.390Z,25.38
2022-12-01T16:42:05.686Z,26.15
2022-12-01T16:44:31.942Z,25.80
2022-12-01T16:46:58.194Z,26.20
2022-12-01T16:49:24.410Z,25.73
2022-12-01T16:51:56.104Z,25.45
2022-12-01T16:54:23.327Z,26.92
2022-12-01T16:56:49.620Z,28.23
2022-12-01T16:59:15.817Z,26.52
2022-12-01T17:01:42.080Z,27.25
2022-12-01T17:04:08.372Z,25.30
2022-12-01T17:06:36.007Z,26.23
2022-12-01T17:09:02.226Z,27.40
2022-12-01T17:11:28.448Z,27.38
2022-12-01T17:13:54.711Z,29.40
2022-12-01T17:16:21.321Z,27.80
2022-12-01T17:18:47.925Z,26.80
2022-12-01T17:21:14.164Z,27.80
2022-12-01T17:23:40.597Z,27.67
2022-12-01T17:26:11.391Z,28.80
2022-12-01T17:28:38.191Z,28.83
2022-12-01T17:31:04.743Z,29.25
2022-12-01T17:33:31.302Z,29.00
2022-12-01T17:36:01.742Z,28.75
2022-12-01T17:38:28.192Z,27.75
2022-12-01T17:41:25.279Z,28.25
2022-12-01T17:43:51.709Z,28.50
2022-12-01T17:46:18.004Z,28.92
2022-12-01T17:48:45.219Z,28.70
2022-12-01T17:51:12.348Z,29.40
2022-12-01T17:53:41.988Z,31.15
2022-12-01T17:56:09.661Z,33.05
2022-12-01T17:58:37.160Z,33.40
2022-12-01T18:01:03.882Z,32.22
2022-12-01T18:03:30.188Z,30.80
2022-12-01T18:06:00.387Z,33.30
2022-12-01T18:08:28.392Z,34.35
2022-12-01T18:10:54.809Z,33.50
2022-12-01T18:13:21.936Z,34.60
2022-12-01T18:15:48.478Z,34.80
2022-12-01T18:18:15.024Z,36.25
2022-12-01T18:20:41.716Z,36.50
2022-12-01T18:23:07.986Z,35.75
2022-12-01T18:25:35.000Z,36.80
2022-12-01T18:28:01.307Z,38.47
2022-12-01T18:30:27.929Z,38.50
2022-12-01T18:32:54.422Z,38.28
2022-12-01T18:35:20.650Z,38.13
2022-12-01T18:37:46.974Z,37.15
2022-12-01T18:40:14.282Z,38.40
2022-12-01T18:42:40.761Z,38.33
2022-12-01T18:45:07.678Z,39.22
2022-12-01T18:47:34.122Z,37.15
2022-12-01T18:50:00.341Z,38.08
2022-12-01T18:52:26.657Z,39.10
2022-12-01T18:54:53.581Z,39.38
2022-12-01T18:57:19.973Z,38.17
2022-12-01T18:59:46.238Z,39.53
2022-12-01T19:02:12.519Z,38.83
2022-12-01T19:04:38.735Z,39.30
2022-12-01T19:07:04.987Z,39.63
2022-12-01T19:09:31.173Z,37.38
2022-12-01T19:12:00.041Z,36.22
2022-12-01T19:14:30.526Z,34.85
2022-12-01T19:16:56.817Z,33.05
2022-12-01T19:19:23.292Z,32.42
2022-12-01T19:21:50.374Z,33.45
2022-12-01T19:24:16.753Z,32.85
2022-12-01T19:26:43.940Z,32.45
2022-12-01T19:29:10.247Z,33.40
2022-12-01T19:31:36.574Z,31.35
2022-12-01T19:34:04.070Z,30.02
2022-12-01T19:36:30.325Z,28.85
2022-12-01T19:38:57.911Z,31.70
2022-12-01T19:41:25.242Z,32.38
2022-12-01T19:43:54.665Z,31.40
2022-12-01T19:46:22.308Z,31.08
2022-12-01T19:48:52.755Z,28.50
2022-12-01T19:51:20.674Z,30.77
2022-12-01T19:53:46.994Z,27.30
2022-12-01T19:56:13.233Z,27.27
2022-12-01T19:58:39.585Z,27.42
2022-12-01T20:01:06.942Z,25.80
2022-12-01T20:03:33.208Z,25.73
2022-12-01T20:06:03.753Z,22.98
2022-12-01T20:08:32.825Z,24.30
2022-12-01T20:11:03.370Z,24.08
2022-12-01T20:13:36.961Z,25.75
2022-12-01T20:16:07.834Z,24.85
2022-12-01T20:18:35.167Z,24.10
2022-12-01T20:21:02.287Z,23.58
2022-12-01T20:23:28.482Z,23.48
2022-12-01T20:25:57.723Z,27.48
2022-12-01T20:28:23.947Z,25.30
2022-12-01T20:30:50.141Z,22.48
2022-12-01T20:33:16.612Z,20.17
2022-12-01T20:35:42.835Z,24.10
2022-12-01T20:38:09.057Z,21.88
2022-12-01T20:40:35.281Z,23.42
2022-12-01T20:43:01.489Z,21.10
2022-12-01T20:45:27.777Z,20.85
2022-12-01T20:47:53.999Z,21.63
2022-12-01T20:50:20.224Z,20.90
2022-12-01T20:52:46.435Z,22.92
2022-12-01T20:55:12.724Z,20.67
2022-12-01T20:57:38.976Z,25.23
2022-12-01T21:00:05.457Z,22.02
2022-12-01T21:02:31.659Z,20.80
2022-12-01T21:04:59.385Z,28.40
2022-12-01T21:07:25.853Z,23.95
2022-12-01T21:09:52.106Z,22.10
2022-12-01T21:12:37.096Z,20.90
2022-12-01T21:15:22.193Z,22.13
2022-12-01T21:17:52.914Z,22.85
2022-12-01T21:20:27.886Z,21.65
2022-12-01T21:22:57.147Z,20.85
2022-12-01T21:25:25.498Z,20.25
2022-12-01T21:27:51.784Z,20.70
2022-12-01T21:30:20.785Z,19.98
2022-12-01T21:32:47.572Z,20.33
2022-12-01T21:35:21.693Z,21.08
2022-12-01T21:37:48.584Z,22.73
2022-12-01T21:40:22.460Z,20.52
2022-12-01T21:42:48.849Z,21.95
2022-12-01T21:45:18.213Z,21.77
2022-12-01T21:47:44.470Z,21.50
2022-12-01T21:50:16.467Z,21.02
2022-12-01T21:52:43.561Z,22.95
2022-12-01T21:55:15.944Z,21.63
2022-12-01T21:57:49.450Z,22.92
2022-12-01T22:00:26.724Z,20.83
2022-12-01T22:03:08.045Z,22.38
2022-12-01T22:06:00.976Z,21.85
2022-12-01T22:08:32.242Z,22.15
2022-12-01T22:11:03.841Z,21.88
2022-12-01T22:13:43.559Z,21.85
2022-12-01T22:16:20.225Z,23.05
2022-12-01T22:18:56.824Z,21.92
2022-12-01T22:21:23.191Z,21.75
2022-12-01T22:23:50.019Z,22.33
2022-12-01T22:26:19.374Z,22.98
2022-12-01T22:28:46.484Z,23.10
2022-12-01T22:31:19.208Z,24.60
2022-12-01T22:33:45.460Z,24.05
2022-12-01T22:36:21.835Z,33.30
2022-12-01T22:38:48.077Z,25.58
2022-12-01T22:41:15.712Z,23.90
2022-12-01T22:43:46.360Z,25.17
2022-12-01T22:46:32.741Z,24.88
2022-12-01T22:49:01.369Z,23.98
2022-12-01T22:51:29.225Z,23.50
2022-12-01T22:54:18.437Z,23.58
2022-12-01T22:56:46.246Z,23.85
2022-12-01T22:59:23.740Z,23.85
2022-12-01T23:01:54.398Z,22.60
2022-12-01T23:04:23.167Z,22.95
2022-12-01T23:06:53.042Z,23.98
2022-12-01T23:09:20.020Z,25.25
2022-12-01T23:11:51.902Z,22.25
2022-12-01T23:14:22.222Z,22.73
2022-12-01T23:16:49.458Z,22.58
2022-12-01T23:19:15.663Z,22.55
2022-12-01T23:21:41.854Z,25.23
2022-12-01T23:24:09.181Z,24.13
2022-12-01T23:26:35.390Z,24.30
2022-12-01T23:29:01.595Z,23.67
2022-12-01T23:31:29.019Z,22.95
2022-12-01T23:33:55.389Z,23.42
2022-12-01T23:36:23.034Z,23.10
2022-12-01T23:38:51.356Z,24.60
2022-12-01T23:41:25.712Z,22.17
2022-12-01T23:43:53.679Z,22.73
2022-12-01T23:46:22.455Z,24.20
2022-12-01T23:48:51.162Z,24.10
2022-12-01T23:51:25.157Z,23.65
2022-12-01T23:53:51.927Z,24.38
2022-12-01T23:56:22.517Z,24.05
2022-12-01T23:58:49.348Z,25.07
